Home > Products > Valid Products > TAF

000
FTUS44 KLZK 232000 AAA
TAFHRO
TAF AMD
KHRO 232002Z 2320/2418 17008KT P6SM OVC018
     FM240300 24010G20KT 5SM -RA BR OVC008
      TEMPO 2403/2407 3SM -RA BR OVC004
     FM240700 29018G28KT P6SM OVC015
     FM241200 29018G28KT P6SM BKN040=



000
FTUS44 KLZK 231700
TAFPBF
TAF
KPBF 231737Z 2318/2418 18010KT 5SM -RA OVC010
      TEMPO 2318/2322 2SM RA BR OVC005
     FM232300 20010KT 6SM BR OVC012
     FM240300 22012G22KT P6SM OVC015
     FM240600 27018G28KT P6SM OVC020
     FM241300 27018G28KT P6SM SCT030=



000
FTUS44 KLZK 231700
TAFHRO
TAF
KHRO 231737Z 2318/2418 16007KT 5SM BR OVC008
      TEMPO 2318/2322 3SM BR OVC004
     FM240300 24010G20KT 5SM -RA BR OVC008
      TEMPO 2403/2407 3SM -RA BR OVC004
     FM240700 29018G28KT P6SM OVC015
     FM241200 29018G28KT P6SM BKN040=



000
FTUS44 KLZK 231700
TAFHOT
TAF
KHOT 231737Z 2318/2418 16006KT P6SM SCT006 OVC012
      TEMPO 2318/2322 4SM -RA BR OVC006
     FM232200 20007KT P6SM OVC015
     FM240600 28010G18KT P6SM OVC020
     FM241200 28012G22KT P6SM SCT030=



000
FTUS44 KLZK 231700
TAFLIT
TAF
KLIT 231737Z 2318/2418 18010KT 5SM -RA OVC010
      TEMPO 2318/2322 3SM -RA BR OVC006
     FM232200 19008KT 6SM BR OVC015
     FM240300 23012G22KT P6SM OVC015
     FM240600 27018G28KT P6SM OVC020
     FM241300 26018G28KT P6SM SCT030=



000
FTUS44 KLZK 231600 AAD
TAFHRO
TAF AMD
KHRO 231612Z 2316/2412 16009KT P6SM OVC012
      TEMPO 2316/2320 4SM BR OVC003
     FM232000 18010KT P6SM VCSH OVC012
     FM240000 24012G20KT P6SM VCSH BKN030
     FM240600 29018G28KT P6SM SCT030 BKN060=



000
FTUS44 KLZK 231600 AAC
TAFPBF
TAF AMD
KPBF 231610Z 2316/2412 14010KT 5SM -RA OVC008
      TEMPO 2316/2320 2SM -RA BR OVC004
     FM232000 20010KT 5SM BR OVC012
     FM240000 23012G22KT P6SM BKN060
     FM240600 26018G28KT P6SM SCT060 BKN250=



000
FTUS44 KLZK 231600 AAC
TAFPBF
TAF AMD
KPBF 231610Z 2316/2412 14010KT 5SM -RA OVC008
      TEMPO 2316/2320 2SM -RA BR OVC004
     FM232000 20010KT 5SM BR OVC012
     FM240000 23012G22KT P6SM BKN060
     FM240600 26018G28KT P6SM SCT060 BKN250=



000
FTUS44 KLZK 231600 AAC
TAFHOT
TAF AMD
KHOT 231607Z 2316/2412 16006KT 6SM BR OVC008
      TEMPO 2316/2320 4SM -RA BR OVC004
     FM232000 18007KT P6SM OVC012
     FM240000 26012G22KT P6SM SCT060 BKN250=



000
FTUS44 KLZK 231500 AAD
TAFLIT
TAF AMD
KLIT 231559Z 2316/2412 18010KT 5SM -RA OVC012
      TEMPO 2316/2320 2SM -RA BR OVC006
     FM232000 19010KT 5SM BR OVC015
     FM240000 23012G22KT P6SM BKN060
     FM240600 27018G28KT P6SM SCT060 BKN250=



000
FTUS44 KLZK 231500 AAC
TAFHRO
TAF AMD
KHRO 231545Z 2316/2412 16009G16KT P6SM OVC012
      TEMPO 2316/2318 3SM BR OVC007
     FM231800 17009G16KT P6SM VCSH OVC025
     FM240000 24012G20KT P6SM VCSH BKN030
     FM240600 29018G28KT P6SM SCT030 BKN060=



000
FTUS44 KLZK 231500 AAC
TAFHRO
TAF AMD
KHRO 231545Z 2316/2412 16009G16KT P6SM OVC012
      TEMPO 2316/2318 3SM BR OVC007
     FM231800 17009G16KT P6SM VCSH OVC025
     FM240000 24012G20KT P6SM VCSH BKN030
     FM240600 29018G28KT P6SM SCT030 BKN060=



000
FTUS44 KLZK 231500 AAB
TAFHOT
TAF AMD
KHOT 231504Z 2315/2412 16006KT P6SM -RA OVC008
      TEMPO 2315/2318 4SM -RA BR OVC005
     FM231800 21009KT P6SM VCSH SCT025 BKN050
      TEMPO 2318/2320 BKN025
     FM240000 26012G22KT P6SM SCT060 BKN250=



000
FTUS44 KLZK 231500 AAB
TAFHRO
TAF AMD
KHRO 231502Z 2315/2412 16009G16KT P6SM OVC012
      TEMPO 2315/2318 OVC007
     FM231800 17009G16KT P6SM VCSH OVC025
     FM240000 24012G20KT P6SM VCSH BKN030
     FM240600 29018G28KT P6SM SCT030 BKN060=



000
FTUS44 KLZK 231400 AAB
TAFPBF
TAF AMD
KPBF 231405Z 2314/2412 14010KT 4SM -RA BR OVC005 WS020/18040KT
      TEMPO 2314/2316 6SM -RA BR SCT007 OVC015
     FM231600 17008KT 5SM -RA OVC012
     FM231900 20010G18KT P6SM VCSH SCT025 BKN050
      TEMPO 2319/2321 5SM -RA BR BKN025
     FM240000 23012G22KT P6SM BKN060
     FM240600 26018G28KT P6SM SCT060 BKN250=



000
FTUS44 KLZK 231300 AAC
TAFLIT
TAF AMD
KLIT 231342Z 2314/2412 15010G18KT 2SM -RA BR OVC004 WS020/18040KT
      TEMPO 2314/2316 5SM -RA BR SCT005 OVC015
     FM231600 17009G16KT 5SM -RA OVC012
     FM231800 20009G16KT P6SM VCSH SCT025 BKN050
      TEMPO 2318/2320 -RA BKN025
     FM240000 23012G22KT P6SM BKN060
     FM240600 27018G28KT P6SM SCT060 BKN250=



000
FTUS44 KLZK 231200 AAB
TAFLIT
TAF AMD
KLIT 231257Z 2313/2412 15010G18KT 5SM -RA BR SCT005 OVC015
      WS020/18040KT
      TEMPO 2313/2315 3SM -RA BR BKN005
     FM231500 17009G16KT 5SM -RA OVC012
     FM231800 20009G16KT P6SM VCSH SCT025 BKN050
      TEMPO 2318/2320 -RA BKN025
     FM240000 23012G22KT P6SM BKN060
     FM240600 27018G28KT P6SM SCT060 BKN250=



000
FTUS44 KLZK 231200 AAA
TAFPBF
TAF AMD
KPBF 231244Z 2313/2412 14008KT 6SM -RA BR SCT007 OVC015
      WS020/18040KT
      TEMPO 2313/2315 4SM -RA BR BKN007
     FM231500 17008KT 5SM -RA OVC012
     FM231900 20010G18KT P6SM VCSH SCT025 BKN050
      TEMPO 2319/2321 5SM -RA BR BKN025
     FM240000 23012G22KT P6SM BKN060
     FM240600 26018G28KT P6SM SCT060 BKN250=



000
FTUS44 KLZK 231200 AAA
TAFHRO
TAF AMD
KHRO 231238Z 2313/2412 16009G16KT P6SM VCSH SCT007 OVC015
      WS020/19035KT
      TEMPO 2313/2315 5SM -RA BR BKN007
     FM231500 16009G16KT 5SM -RA BR OVC012
     FM231800 17009G16KT P6SM VCSH OVC025
     FM240000 24012G20KT P6SM VCSH BKN030
     FM240600 29018G28KT P6SM SCT030 BKN060=



000
FTUS44 KLZK 231200 AAA
TAFHOT
TAF AMD
KHOT 231237Z 2313/2412 15008KT 6SM -RA BR OVC005 WS020/18035KT
      TEMPO 2313/2315 4SM -RA BR SCT005 OVC015
     FM231500 19008KT P6SM -RA OVC012
     FM231800 21009KT P6SM VCSH SCT025 BKN050
      TEMPO 2318/2320 BKN025
     FM240000 26012G22KT P6SM SCT060 BKN250=



000
FTUS44 KLZK 231200 AAA
TAFLIT
TAF AMD
KLIT 231235Z 2313/2412 15010G18KT 6SM -RA BR SCT005 OVC015
      WS020/18040KT
      TEMPO 2313/2315 4SM -RA BR BKN005
     FM231500 17009G16KT P6SM -RA OVC012
     FM231800 20009G16KT P6SM VCSH SCT025 BKN050
      TEMPO 2318/2320 -RA BKN025
     FM240000 23012G22KT P6SM BKN060
     FM240600 27018G28KT P6SM SCT060 BKN250=



000
FTUS44 KLZK 231100
TAFHOT
TAF
KHOT 231140Z 2312/2412 15008KT P6SM VCSH OVC007 WS020/18035KT
      TEMPO 2312/2315 5SM -RA BR SCT007 OVC015
     FM231500 19008KT P6SM -RA OVC012
     FM231800 21009KT P6SM VCSH SCT025 BKN050
      TEMPO 2318/2320 BKN025
     FM240000 26012G22KT P6SM SCT060 BKN250=



000
FTUS44 KLZK 231100
TAFLIT
TAF
KLIT 231140Z 2312/2412 14010G18KT P6SM VCSH SCT007 OVC015
      WS020/18040KT
      TEMPO 2312/2315 5SM -RA BR BKN007
     FM231500 17009G16KT P6SM -RA OVC015
     FM231800 20009G16KT P6SM VCSH SCT025 BKN050
      TEMPO 2318/2320 -RA BKN025
     FM240000 23012G22KT P6SM BKN060
     FM240600 27018G28KT P6SM SCT060 BKN250=



000
FTUS44 KLZK 231100
TAFPBF
TAF
KPBF 231140Z 2312/2412 14008KT P6SM VCSH SCT007 OVC015
      WS020/18040KT
      TEMPO 2312/2315 5SM -RA BR BKN007
     FM231500 17008KT P6SM -RA OVC012
     FM231900 20010G18KT P6SM VCSH SCT025 BKN050
      TEMPO 2319/2321 5SM -RA BR BKN025
     FM240000 23012G22KT P6SM BKN060
     FM240600 26018G28KT P6SM SCT060 BKN250=



000
FTUS44 KLZK 231100
TAFHRO
TAF
KHRO 231140Z 2312/2412 16010G18KT P6SM VCSH SCT007 OVC015
      WS020/19035KT
      TEMPO 2312/2315 BKN007
     FM231500 16009G16KT 5SM -RA BR OVC012
     FM231800 17009G16KT P6SM VCSH OVC025
     FM240000 24012G20KT P6SM VCSH BKN030
     FM240600 29018G28KT P6SM SCT030 BKN060=



000
FTUS44 KLZK 231000 AAA
TAFPBF
TAF AMD
KPBF 231012Z 2310/2406 14008KT P6SM VCSH SCT007 OVC015
      WS020/18040KT
      TEMPO 2310/2314 5SM -RA BR BKN007
     FM231400 18008KT P6SM -RA OVC012
     FM231900 21010G18KT P6SM VCSH SCT025 BKN050
      TEMPO 2319/2321 5SM -RA BR BKN025
     FM240000 23012G22KT P6SM BKN060=



000
FTUS44 KLZK 231000 AAC
TAFLIT
TAF AMD
KLIT 231008Z 2310/2406 14010G18KT P6SM VCSH SCT007 OVC040
      WS020/18040KT
      TEMPO 2310/2314 5SM -RA BR BKN007
     FM231400 17009G16KT P6SM -RA OVC015
     FM231800 20009G16KT P6SM VCSH SCT025 BKN050
      TEMPO 2318/2320 -RA BKN025
     FM240000 24014G24KT P6SM BKN060=



000
FTUS44 KLZK 231000 AAB
TAFHOT
TAF AMD
KHOT 231002Z 2310/2406 15008KT P6SM VCSH SCT007 OVC015
      WS020/18035KT
      TEMPO 2310/2314 5SM -RA BR BKN007
     FM231400 19008KT P6SM -RA OVC012
     FM231800 21009KT P6SM VCSH SCT025 BKN050
      TEMPO 2318/2320 BKN025
     FM240000 26012G22KT P6SM BKN060=



000
FTUS44 KLZK 230900 AAA
TAFHRO
TAF AMD
KHRO 230954Z 2310/2406 15012G20KT P6SM VCSH SCT007 OVC015
      WS020/19035KT
      TEMPO 2310/2314 BKN007
     FM231400 15009G16KT 5SM -RA BR OVC012
     FM231800 17009G16KT P6SM VCSH SCT025 BKN050
      TEMPO 2318/2320 BKN025
     FM240200 24015G25KT P6SM SCT030 BKN060=



000
FTUS44 KLZK 230900 AAA
TAFHRO
TAF AMD
KHRO 230954Z 2310/2406 15012G20KT P6SM VCSH SCT007 OVC015
      WS020/19035KT
      TEMPO 2310/2314 BKN007
     FM231400 15009G16KT 5SM -RA BR OVC012
     FM231800 17009G16KT P6SM VCSH SCT025 BKN050
      TEMPO 2318/2320 BKN025
     FM240200 24015G25KT P6SM SCT030 BKN060=



000
FTUS44 KLZK 230900 AAB
TAFLIT
TAF AMD
KLIT 230919Z 2309/2406 14010G18KT 6SM -RA BR VCTS SCT015 BKN040CB
      WS020/17040KT
      TEMPO 2309/2311 4SM RA BR BKN015
     FM231100 14009G16KT 5SM -RA BR VCTS SCT007CB OVC015
      WS020/18035KT
      TEMPO 2311/2315 3SM RA BR BKN007
     FM231800 21011KT P6SM VCSH SCT015 BKN025
     FM240000 19010G16KT P6SM SCT025 BKN040=



000
FTUS44 KLZK 230800 AAA
TAFHOT
TAF AMD
KHOT 230808Z 2308/2406 14008KT 6SM -RA BR VCTS SCT015 OVC040CB
      WS020/18035KT
      TEMPO 2308/2310 4SM RA BR BKN015
     FM231000 14008KT 5SM -RA BR VCTS SCT007 OVC015CB WS020/18035KT
      TEMPO 2310/2314 3SM RA BR BKN007
     FM231800 20007KT P6SM VCSH SCT015 BKN025
     FM240000 20008KT P6SM SCT025 BKN040=



000
FTUS44 KLZK 230800 AAA
TAFLIT
TAF AMD
KLIT 230806Z 2308/2406 13008KT 6SM -RA BR VCTS SCT015 BKN040CB
      WS020/17040KT
      TEMPO 2308/2311 4SM RA BR BKN015
     FM231100 14008KT 5SM -RA BR VCTS SCT007CB OVC015 WS020/18035KT
      TEMPO 2311/2315 3SM RA BR BKN007
     FM231800 21011KT P6SM VCSH SCT015 BKN025
     FM240000 19010G16KT P6SM SCT025 BKN040=



000
FTUS44 KLZK 230500
TAFLIT
TAF
KLIT 230537Z 2306/2406 14006KT P6SM SCT035 BKN040 WS020/18035KT
     FM230800 13008KT 5SM -RA BR VCTS SCT015 BKN025CB WS020/17040KT
     FM231100 14008KT 4SM -RA BR VCTS BKN008CB OVC015 WS020/18035KT
     FM231800 21011KT P6SM VCSH SCT012 BKN025
     FM240000 19010G16KT P6SM SCT025 BKN040=



000
FTUS44 KLZK 230500
TAFHOT
TAF
KHOT 230537Z 2306/2406 12004KT 4SM -RA BR VCTS SCT015 OVC030CB
      WS020/18035KT
     FM231000 13008KT 4SM -RA BR VCTS BKN008CB OVC015 WS020/18035KT
     FM231800 20007KT P6SM VCSH SCT012 BKN025
     FM240000 20008KT P6SM SCT025 BKN040=



000
FTUS44 KLZK 230500
TAFPBF
TAF
KPBF 230537Z 2306/2406 14007KT P6SM SCT030 OVC040
     FM230830 14010KT 4SM -RA BR VCTS OVC012CB WS020/18035KT
     FM231000 14010KT 4SM -RA BR VCTS OVC008CB WS020/17040KT
     FM231800 19009G16KT P6SM VCSH SCT012 BKN025
     FM240000 20015G25KT P6SM SCT025 BKN040=



000
FTUS44 KLZK 230500
TAFHRO
TAF
KHRO 230537Z 2306/2406 15009KT 6SM BR SCT020 BKN060 WS020/20030KT
     FM230800 14010KT 5SM BR VCTS SCT007 OVC020CB WS020/19035KT
      TEMPO 2308/2312 3SM TSRA BR BKN007CB
     FM231200 13010KT 5SM -RA BR VCTS OVC008CB WS020/19040KT
     FM231800 14007KT 5SM BR VCSH SCT008 BKN012
     FM240200 21010G16KT P6SM SCT012 BKN025=



000
FTUS44 KLZK 230300 AAA
TAFHRO
TAF AMD
KHRO 230316Z 2303/2324 15009KT 6SM BR SCT025 BKN040 WS020/20030KT
     FM230800 14010KT 5SM BR VCTS OVC008CB WS020/19035KT
      TEMPO 2308/2312 3SM TSRA BR BKN004 OVC008CB
     FM231200 13010KT 5SM -RA BR VCTS OVC008CB WS020/19040KT
     FM231800 14007KT 5SM BR VCSH SCT008 BKN012=



000
FTUS44 KLZK 222300
TAFLIT
TAF
KLIT 222320Z 2300/2324 17010KT P6SM VCSH SCT025 OVC040
     FM230200 14008KT P6SM VCSH SCT015 OVC035
     FM230600 15006KT 4SM -RA BR VCTS BKN007 OVC012CB WS020/18035KT
     FM231000 13008KT 4SM -RA BR VCTS OVC008CB WS020/17040KT=



000
FTUS44 KLZK 222300
TAFHOT
TAF
KHOT 222320Z 2300/2324 16008KT P6SM VCSH SCT025 OVC040
     FM230200 12009KT P6SM VCSH SCT015 OVC025
     FM230500 12004KT 4SM -RA BR VCTS BKN007 OVC012CB WS020/18035KT
     FM231000 13008KT 4SM -RA BR VCTS OVC008CB WS020/18035KT=



000
FTUS44 KLZK 222300
TAFPBF
TAF
KPBF 222320Z 2300/2324 17011KT P6SM SCT040 OVC080
     FM230200 14007KT P6SM SCT030 OVC050
     FM230700 14010KT 4SM -RA BR VCTS OVC012CB WS020/18035KT
     FM231000 14010KT 4SM -RA BR VCTS OVC008CB WS020/17040KT=



000
FTUS44 KLZK 222300
TAFHRO
TAF
KHRO 222320Z 2300/2324 15011KT 4SM -RA BR BKN005 WS020/20030KT
     FM230600 14010KT 5SM BR VCTS OVC008CB WS020/19035KT
      TEMPO 2306/2310 3SM TSRA BR BKN004 OVC008CB
     FM231000 13010KT 5SM -RA BR VCTS OVC008CB WS020/19040KT
     FM231800 14007KT 5SM BR VCSH SCT008 BKN012=



000
FTUS44 KLZK 222200 AAB
TAFHRO
TAF AMD
KHRO 222256Z 2223/2318 17010KT P6SM VCTS OVC005CB WS020/20035KT
     FM230600 14010KT 5SM BR VCTS OVC012CB WS020/19035KT
      TEMPO 2306/2310 3SM TSRA BR OVC009CB
     FM231000 13010KT 5SM -RA BR VCTS OVC008CB WS020/19040KT=



000
FTUS44 KLZK 221900 AAA
TAFHRO
TAF AMD
KHRO 221938Z 2220/2318 17010KT P6SM VCTS OVC015CB WS020/20035KT
      TEMPO 2220/2222 1SM TSRA OVC010CB
     FM230000 15011KT 5SM BR VCSH OVC012 WS020/20030KT
     FM230600 14010KT 5SM BR VCTS OVC012CB WS020/19035KT
      TEMPO 2306/2310 3SM TSRA BR OVC009CB
     FM231000 13010KT 5SM -RA BR VCTS OVC008CB WS020/19040KT=



000
FTUS44 KLZK 221700
TAFLIT
TAF
KLIT 221735Z 2218/2318 17010KT P6SM VCSH SCT025 OVC040
     FM230200 14008KT P6SM VCSH SCT015 OVC035
     FM230600 15006KT 4SM -RA BR VCTS BKN007 OVC012CB WS020/18035KT
     FM231000 13008KT 4SM -RA BR VCTS OVC008CB WS020/17040KT=



000
FTUS44 KLZK 221700
TAFHRO
TAF
KHRO 221735Z 2218/2318 17010KT P6SM VCTS OVC015CB WS020/20035KT
      TEMPO 2218/2222 3SM -TSRA OVC020CB
     FM230000 15011KT 5SM BR VCSH OVC012 WS020/20030KT
     FM230600 14010KT 5SM BR VCTS OVC012CB WS020/19035KT
      TEMPO 2306/2310 3SM TSRA BR OVC009CB
     FM231000 13010KT 5SM -RA BR VCTS OVC008CB WS020/19040KT=



000
FTUS44 KLZK 221700
TAFHOT
TAF
KHOT 221735Z 2218/2318 16008KT P6SM VCSH SCT025 OVC040
     FM230200 12009KT P6SM VCSH SCT015 OVC025
     FM230500 12004KT 4SM -RA BR VCTS BKN007 OVC012CB WS020/18035KT
     FM231000 13008KT 4SM -RA BR VCTS OVC008CB WS020/18035KT=



000
FTUS44 KLZK 221700
TAFPBF
TAF
KPBF 221735Z 2218/2318 17011KT P6SM SCT040 OVC080
     FM230200 14007KT P6SM SCT030 OVC050
     FM230700 14010KT 4SM -RA BR VCTS OVC012CB WS020/18035KT
     FM231000 14010KT 4SM -RA BR VCTS OVC008CB WS020/17040KT=



000
FTUS44 KLZK 221500 AAA
TAFLIT
TAF AMD
KLIT 221509Z 2215/2312 14004KT P6SM VCSH SCT035 BKN050
      WS020/20035KT
     FM221800 17010KT P6SM BKN050
     FM230200 15005KT P6SM SCT030 OVC050
     FM230600 14004KT 3SM -SHRA BKN025 OVC035=



000
FTUS44 KLZK 221500 AAB
TAFHRO
TAF AMD
KHRO 221509Z 2215/2312 17011KT P6SM VCTS BKN018 OVC025CB
      TEMPO 2215/2217 3SM -TSRA OVC025CB
     FM221700 17010KT 4SM -SHRA OVC012
     FM230300 15011KT 3SM BR VCSH OVC007=



000
FTUS44 KLZK 221400 AAA
TAFHRO
TAF AMD
KHRO 221418Z 2214/2312 17011KT P6SM VCTS BKN018 OVC025CB
     FM221700 17010KT 4SM -SHRA OVC012
     FM230300 15011KT 3SM BR VCSH OVC007=



000
FTUS44 KLZK 221400 AAB
TAFHOT
TAF AMD
KHOT 221409Z 2214/2312 17008KT P6SM VCSH OVC015 WS020/20035KT
     FM221800 16006KT P6SM VCSH SCT025 OVC040
     FM230200 12005KT P6SM VCSH SCT015 OVC025
     FM230500 12004KT 2SM -SHRA BKN007 OVC012=



000
FTUS44 KLZK 221200 AAA
TAFHOT
TAF AMD
KHOT 221242Z 2213/2312 16006KT P6SM VCSH OVC028 WS020/20035KT
     FM221800 16006KT P6SM VCSH SCT025 OVC040
     FM230200 12005KT P6SM VCSH SCT015 OVC025
     FM230500 12004KT 2SM -SHRA BKN007 OVC012=



000
FTUS44 KLZK 221100 RRA
TAFPBF
TAF
KPBF 221155Z 2212/2312 14008KT P6SM OVC060
      TEMPO 2213/2216 -SHRA OVC035
     FM221800 17011KT P6SM OVC060
     FM230200 14004KT P6SM SCT030 OVC050
     FM230500 12006KT 3SM -SHRA BKN010 OVC019=



000
FTUS44 KLZK 221100 RRA
TAFHOT
TAF
KHOT 221155Z 2212/2312 18006KT P6SM VCSH OVC035 WS020/20035KT
     FM221800 16006KT P6SM VCSH SCT025 OVC040
     FM230200 12005KT P6SM VCSH SCT015 OVC025
     FM230500 12004KT 2SM -SHRA BKN007 OVC012=



000
FTUS44 KLZK 221100 RRA
TAFHRO
TAF
KHRO 221155Z 2212/2312 16011KT P6SM BKN018 WS020/20035KT
     FM221400 17011KT 6SM BR VCSH BKN018 OVC025
     FM221700 17010KT 4SM -SHRA OVC012
     FM230300 15011KT 3SM BR VCSH OVC007=



000
FTUS44 KLZK 221100 RRA
TAFLIT
TAF
KLIT 221155Z 2212/2312 14004KT 3SM BR VCSH BKN050 WS020/20035KT
     FM221800 17010KT P6SM BKN050
     FM230200 15005KT P6SM SCT030 OVC050
     FM230600 14004KT 3SM -SHRA BKN025 OVC035=



000
FTUS44 KLZK 220900 AAB
TAFHOT
TAF AMD
KHOT 220935Z 2210/2306 10005KT P6SM BKN050 WS020/18035KT
     FM221500 15005KT P6SM VCSH SCT010 BKN025 WS020/18035KT
     FM221800 14005KT P6SM VCSH SCT015 BKN040
     FM230300 13008KT 6SM -RA BR BKN015 OVC025=



000
FTUS44 KLZK 220900 AAB
TAFHRO
TAF AMD
KHRO 220929Z 2209/2306 17007KT P6SM OVC035 WS020/20040KT
     FM221500 16010G16KT 6SM -DZ BR SCT005 BKN010 WS020/20040KT
     FM221800 17010G18KT P6SM VCSH SCT015 BKN040
     FM230000 14009G16KT 6SM -RA BR BKN015 OVC025=



000
FTUS44 KLZK 220900 AAA
TAFPBF
TAF AMD
KPBF 220924Z 2209/2306 VRB03KT P6SM OVC100
     FM221300 16006KT P6SM OVC040 WS020/18035KT
     FM221800 17013G20KT P6SM OVC040 WS020/18035KT=



000
FTUS44 KLZK 220900 AAB
TAFLIT
TAF AMD
KLIT 220924Z 2209/2306 00000KT 3SM BR MIFG FEW050 OVC060
     FM221500 16007KT P6SM VCSH SCT010 BKN025 WS020/18035KT
     FM221800 17010KT P6SM VCSH SCT025 BKN040 WS020/18035KT=



000
FTUS44 KLZK 220600 AAA
TAFHRO
TAF AMD
KHRO 220611Z 2206/2306 12007KT 2SM BR OVC035 WS020/20040KT
      TEMPO 2209/2213 1SM -DZ BR OVC001
     FM221500 16010G16KT 6SM -DZ BR SCT005 BKN010 WS020/20040KT
     FM221800 17010G18KT P6SM VCSH SCT015 BKN040
     FM230000 14009G16KT 6SM -RA BR BKN015 OVC025=



000
FTUS44 KLZK 220600 AAA
TAFHOT
TAF AMD
KHOT 220610Z 2206/2306 07006KT 5SM BR BKN050 WS020/18035KT
      TEMPO 2209/2213 2SM -DZ BR BKN002
     FM221500 15005KT P6SM VCSH SCT010 BKN025 WS020/18035KT
     FM221800 14005KT P6SM VCSH SCT015 BKN040
     FM230300 13008KT 6SM -RA BR BKN015 OVC025=



000
FTUS44 KLZK 220600 AAA
TAFLIT
TAF AMD
KLIT 220609Z 2206/2306 00000KT 3SM BR MIFG FEW050 BKN070 BKN100
      TEMPO 2209/2213 1SM -DZ BR BKN001
     FM221500 16007KT P6SM VCSH SCT010 BKN025 WS020/18035KT
     FM221800 17010KT P6SM VCSH SCT025 BKN040 WS020/18035KT=



000
FTUS44 KLZK 220500
TAFLIT
TAF
KLIT 220538Z 2206/2306 VRB06KT 3SM -DZ BR OVC003
      TEMPO 2209/2213 1SM -DZ BR BKN001
     FM221500 16007KT P6SM VCSH SCT010 BKN025 WS020/18035KT
     FM221800 17010KT P6SM VCSH SCT025 BKN040 WS020/18035KT=



000
FTUS44 KLZK 220500
TAFHRO
TAF
KHRO 220538Z 2206/2306 12010KT 2SM -DZ BR OVC004 WS020/20040KT
      TEMPO 2209/2213 1SM -DZ BR OVC001
     FM221500 16010G16KT 6SM -DZ BR SCT005 BKN010 WS020/20040KT
     FM221800 17010G18KT P6SM VCSH SCT015 BKN040
     FM230000 14009G16KT 6SM -RA BR BKN015 OVC025=



000
FTUS44 KLZK 220500
TAFPBF
TAF
KPBF 220538Z 2206/2306 16005KT 3SM BR SCT015 BKN040
      TEMPO 2209/2213 1SM -DZ BR BKN015
     FM221300 16006KT P6SM OVC040 WS020/18035KT
     FM221800 17013G20KT P6SM OVC040 WS020/18035KT=



000
FTUS44 KLZK 220500
TAFHOT
TAF
KHOT 220538Z 2206/2306 VRB06KT 4SM -DZ BR OVC004 WS020/18035KT
      TEMPO 2209/2213 2SM -DZ BR BKN002
     FM221500 15005KT P6SM VCSH SCT010 BKN025 WS020/18035KT
     FM221800 14005KT P6SM VCSH SCT015 BKN040
     FM230300 13008KT 6SM -RA BR BKN015 OVC025=



000
FTUS44 KLZK 220300 AAA
TAFPBF
TAF AMD
KPBF 220353Z 2204/2224 16005KT 3SM BR BKN050
      TEMPO 2204/2208 1SM BR
     FM221200 16006KT P6SM OVC040 WS020/18035KT
     FM221800 17013G20KT P6SM OVC040 WS020/18035KT=



000
FTUS44 KLZK 220100 AAA
TAFHRO
TAF AMD
KHRO 220129Z 2201/2224 14009KT 1SM -DZ BR OVC004 WS020/22040KT
      TEMPO 2201/2204 1/4SM FG BKN001
     FM220400 17010G16KT 3SM -DZ BR OVC004 WS020/20040KT
      TEMPO 2209/2213 1SM -DZ BR OVC001
     FM221500 16010G16KT 6SM -DZ BR SCT005 BKN010 WS020/20040KT
     FM221800 17010G18KT P6SM VCSH SCT025 BKN040=



000
FTUS44 KLZK 212300
TAFLIT
TAF
KLIT 212320Z 2200/2224 VRB06KT 2SM -DZ BR OVC003
      TEMPO 2209/2213 1SM -DZ BR BKN001
     FM221500 16007KT P6SM VCSH SCT010 BKN025 WS020/18035KT
     FM221800 17010KT P6SM VCSH SCT025 BKN040 WS020/18035KT=



000
FTUS44 KLZK 212300
TAFHRO
TAF
KHRO 212320Z 2200/2224 14009KT 4SM -DZ BR OVC004 WS020/22040KT
      TEMPO 2200/2204 2SM BR BKN001
     FM220400 17010G16KT 3SM -DZ BR OVC004 WS020/20040KT
      TEMPO 2209/2213 1SM -DZ BR OVC001
     FM221500 16010G16KT 6SM -DZ BR SCT005 BKN010 WS020/20040KT
     FM221800 17010G18KT P6SM VCSH SCT025 BKN040=



000
FTUS44 KLZK 212300
TAFHOT
TAF
KHOT 212320Z 2200/2224 VRB06KT 4SM -DZ BR OVC004 WS020/17035KT
      TEMPO 2200/2204 2SM -DZ BR BKN001
     FM220400 VRB06KT 4SM -DZ BR OVC004 WS020/18035KT
      TEMPO 2209/2213 2SM -DZ BR BKN001
     FM221500 15005KT P6SM VCSH SCT010 BKN025 WS020/18035KT
     FM221800 14005KT P6SM VCSH SCT025 BKN040=



000
FTUS44 KLZK 212300
TAFPBF
TAF
KPBF 212320Z 2200/2224 16005KT P6SM BKN050
     FM221200 16006KT P6SM OVC040 WS020/18035KT
     FM221800 17013G20KT P6SM OVC040 WS020/18035KT=



000
FTUS44 KLZK 212200 AAA
TAFHRO
TAF AMD
KHRO 212205Z 2122/2218 14009KT P6SM OVC015
      TEMPO 2122/2124 3SM BR BKN005
     FM220200 17010KT P6SM OVC010 WS020/20040KT
     FM221400 16010KT P6SM OVC015 WS020/20040KT=



000
FTUS44 KLZK 212100 AAA
TAFLIT
TAF AMD
KLIT 212101Z 2121/2218 07006KT 2SM BR OVC004
     FM212300 08006KT 4SM -RA BR OVC008
     FM220200 17008KT P6SM SCT015 OVC040
     FM221500 15008KT P6SM OVC050=



000
FTUS44 KLZK 212000 AAA
TAFHOT
TAF AMD
KHOT 212052Z 2121/2218 08006KT 2SM -RA BR OVC004
     FM212230 08005KT 6SM BR SCT005 OVC020
     FM220300 14006KT P6SM SCT015 OVC040
     FM221200 15005KT P6SM OVC035=



000
FTUS44 KLZK 211700
TAFLIT
TAF
KLIT 211730Z 2118/2218 06005KT 4SM -RA BR OVC006
     FM212030 13005KT P6SM SCT008 OVC015
     FM220200 17008KT P6SM SCT015 OVC040
     FM221500 15008KT P6SM OVC050=



000
FTUS44 KLZK 211700
TAFHOT
TAF
KHOT 211730Z 2118/2218 09006KT 5SM -RA BR VCSH OVC006
     FM212000 12004KT P6SM VCSH OVC012
     FM220300 14006KT P6SM SCT015 OVC040
     FM221200 15005KT P6SM OVC035=



000
FTUS44 KLZK 211700
TAFHRO
TAF
KHRO 211730Z 2118/2218 12009KT P6SM VCSH OVC009
     FM212130 14009KT P6SM OVC015
     FM220200 17010KT P6SM OVC010 WS020/20040KT
     FM221400 16010KT P6SM OVC015 WS020/20040KT=



000
FTUS44 KLZK 211700
TAFPBF
TAF
KPBF 211730Z 2118/2218 04004KT 4SM -RA BR BKN003 OVC040
     FM212000 16006KT P6SM VCSH SCT008 OVC050
     FM220000 16005KT P6SM BKN050
     FM221200 16006KT P6SM OVC040=



000
FTUS44 KLZK 211600 AAA
TAFPBF
TAF AMD
KPBF 211633Z 2117/2212 00000KT 5SM -RA BR BKN005
     FM211900 16006KT P6SM VCSH SCT008 OVC050
     FM220000 16005KT P6SM BKN050=



000
FTUS44 KLZK 211600 AAA
TAFLIT
TAF AMD
KLIT 211618Z 2116/2212 11005KT 3SM -RA BR OVC006
     FM211800 12005KT 5SM -RA BR OVC010
     FM220000 13005KT P6SM BKN050=



000
FTUS44 KLZK 211100 RRA
TAFPBF
TAF
KPBF 211159Z 2112/2212 00000KT P6SM VCSH FEW006 FEW035 OVC080
      TEMPO 2115/2119 -SHRA
     FM211900 16006KT P6SM VCSH OVC050
     FM220000 16005KT P6SM BKN050=



000
FTUS44 KLZK 211100 RRA
TAFLIT
TAF
KLIT 211159Z 2112/2212 08004KT P6SM VCSH OVC010
     FM211600 11005KT P6SM VCSH OVC012
      TEMPO 2117/2121 -SHRA
     FM220000 13005KT P6SM BKN050=



000
FTUS44 KLZK 211100 RRA
TAFHOT
TAF
KHOT 211159Z 2112/2212 10005KT P6SM VCSH OVC007
      TEMPO 2115/2119 4SM -SHRA
     FM212200 12004KT P6SM VCSH OVC012
     FM220300 14006KT P6SM SCT012 OVC040=



000
FTUS44 KLZK 211100 RRA
TAFHRO
TAF
KHRO 211159Z 2112/2212 13011KT P6SM VCSH OVC013
     FM212300 14009KT P6SM BKN007 OVC012
     FM220600 17010KT P6SM OVC012=



000
FTUS44 KLZK 211000 AAA
TAFPBF
TAF AMD
KPBF 211027Z 2110/2206 02004KT P6SM VCSH FEW040 OVC050
     FM211300 08005KT 4SM -RA BR OVC025
     FM211800 14006KT P6SM VCSH SCT015 BKN050
     FM220000 14008KT P6SM BKN050=



000
FTUS44 KLZK 211000 AAA
TAFHOT
TAF AMD
KHOT 211024Z 2110/2206 09004KT P6SM VCSH OVC020
     FM211200 11005KT 4SM -RA BR OVC007
     FM212100 12006KT 6SM BR VCSH SCT007 OVC015
      TEMPO 2121/2124 4SM -SHRA BR BKN007
     FM220000 14006KT P6SM SCT007 BKN050=



000
FTUS44 KLZK 210800 AAA
TAFHRO
TAF AMD
KHRO 210814Z 2108/2206 12007KT P6SM OVC015
     FM211200 12008KT P6SM VCSH OVC015
     FM211800 13012KT 4SM BR VCSH OVC012 PROB30 2118/2124 2SM -SHRA
      BR OVC005
     FM220000 14009KT P6SM OVC040=



000
FTUS44 KLZK 210500
TAFHOT
TAF
KHOT 210539Z 2106/2206 10004KT P6SM VCSH SCT015 OVC040
      TEMPO 2109/2112 BKN015
     FM211200 11005KT 4SM -RA BR OVC007
     FM212100 12006KT 6SM BR VCSH SCT007 OVC015
      TEMPO 2121/2124 4SM -SHRA BR BKN007
     FM220000 14006KT P6SM SCT007 BKN050=



000
FTUS44 KLZK 210500
TAFLIT
TAF
KLIT 210539Z 2106/2206 10004KT P6SM VCSH SCT015 OVC040
      TEMPO 2109/2112 BKN015
     FM211200 11005KT 4SM -RA BR OVC007
     FM212100 12006KT 6SM BR VCSH SCT007 OVC015
      TEMPO 2121/2124 4SM -SHRA BR BKN007
     FM220000 14006KT P6SM SCT007 BKN050=



000
FTUS44 KLZK 210500
TAFPBF
TAF
KPBF 210539Z 2106/2206 06004KT P6SM VCSH OVC050
     FM211000 08005KT 4SM -RA BR OVC025
     FM211800 14006KT P6SM VCSH SCT015 BKN050
     FM220000 14008KT P6SM BKN050=



000
FTUS44 KLZK 210500
TAFHRO
TAF
KHRO 210539Z 2106/2206 12007KT P6SM SCT025 BKN050
     FM210900 11005KT P6SM BKN025 BKN050
     FM211200 12008KT P6SM VCSH OVC015
     FM211800 13012KT 4SM BR VCSH OVC012 PROB30 2118/2124 2SM -SHRA
      BR OVC005
     FM220000 14009KT P6SM OVC040=



000
FTUS44 KLZK 210400 AAA
TAFPBF
TAF AMD
KPBF 210433Z 2105/2124 06003KT P6SM BKN050
     FM210600 06004KT P6SM VCSH OVC015
     FM211000 08005KT 4SM -RA BR OVC010
     FM211800 14006KT P6SM VCSH SCT015 BKN050=



000
FTUS44 KLZK 210400 AAA
TAFHOT
TAF AMD
KHOT 210432Z 2105/2124 12004KT P6SM FEW035 SCT050
      TEMPO 2105/2106 BKN035
     FM210600 10004KT P6SM VCSH OVC015
     FM211200 11005KT 4SM -RA BR OVC007
     FM212100 12006KT 6SM BR VCSH SCT007 OVC015
      TEMPO 2121/2124 4SM -SHRA BR BKN007=



000
FTUS44 KLZK 210400 AAA
TAFLIT
TAF AMD
KLIT 210432Z 2105/2124 06005KT P6SM SCT060 BKN250
      TEMPO 2105/2106 BKN060
     FM210600 10004KT P6SM VCSH OVC015
     FM211200 11005KT 4SM -RA BR OVC007
     FM212100 12006KT 6SM BR VCSH SCT007 OVC015
      TEMPO 2121/2124 4SM -SHRA BR BKN007=



000
FTUS44 KLZK 202300
TAFHOT
TAF
KHOT 202325Z 2100/2124 10005KT P6SM SCT025 BKN050
      TEMPO 2103/2106 BKN025
     FM210600 10004KT P6SM VCSH OVC015
     FM211200 11005KT 4SM -RA BR OVC007
     FM212100 12006KT 6SM BR VCSH SCT007 OVC015
      TEMPO 2121/2124 4SM -SHRA BR BKN007=



000
FTUS44 KLZK 202300
TAFHRO
TAF
KHRO 202325Z 2100/2124 10006KT P6SM SCT050
     FM210600 12004KT P6SM SCT025 BKN050
     FM210900 11005KT P6SM BKN025 BKN050
     FM211200 12008KT P6SM VCSH OVC015
     FM211800 13012KT 4SM BR VCSH OVC012 PROB30 2118/2124 2SM -SHRA
      BR OVC005=



000
FTUS44 KLZK 202300
TAFPBF
TAF
KPBF 202325Z 2100/2124 09005KT P6SM SCT025 BKN050
      TEMPO 2102/2106 BKN025
     FM210600 06004KT P6SM VCSH OVC015
     FM211000 08005KT 4SM -RA BR OVC010
     FM211800 14006KT P6SM VCSH SCT015 BKN050=



000
FTUS44 KLZK 202300
TAFLIT
TAF
KLIT 202325Z 2100/2124 13005KT P6SM SCT025 BKN050
      TEMPO 2103/2106 BKN025
     FM210600 10004KT P6SM VCSH OVC015
     FM211200 11005KT 4SM -RA BR OVC007
     FM212100 12006KT 6SM BR VCSH SCT007 OVC015
      TEMPO 2121/2124 4SM -SHRA BR BKN007=



000
FTUS44 KLZK 202100 AAA
TAFPBF
TAF AMD
KPBF 202102Z 2021/2118 12006KT P6SM SCT050
     FM210000 08005KT P6SM SCT025 BKN050
      TEMPO 2102/2106 BKN025
     FM210600 06004KT P6SM VCSH OVC015
     FM211200 08005KT 4SM -RA BR OVC010=



000
FTUS44 KLZK 202000 AAA
TAFHOT
TAF AMD
KHOT 202044Z 2021/2118 VRB05KT P6SM SCT050
     FM210000 09005KT P6SM SCT025 BKN050
      TEMPO 2103/2106 BKN025
     FM210600 10004KT P6SM VCSH OVC015
     FM211200 11005KT 4SM -RA BR OVC007=



    US Dept of Commerce
    National Oceanic and Atmospheric Administration
    National Weather Service
    1325 East West Highway
    Silver Spring, MD 20910
    Page Author: NWS Internet Services Team
Disclaimer
Information Quality
Credits
Glossary
Privacy Policy
Freedom of Information Act (FOIA)
About Us
Career Opportunities